Time;durP1;ratioP1;P1;durP2;ratioP2;P2;SDS_P1;SDS_P2;PMS_P1;PMS_P2;Temp;Humidity;BMP_temperature;BMP_pressure;BME280_temperature;BME280_humidity;BME280_pressure;Samples;Min_cycle;Max_cycle;Signal;HPM_P1;HPM_P2
2023/04/23 00:00:32;;;;;;;5.88;3.17;;;;;;;10.28;100.00;96614.91;5027180;28;20544;-60
2023/04/23 00:03:08;;;;;;;6.20;3.00;;;;;;;10.26;100.00;96618.97;5027245;28;20064;-60
2023/04/23 00:05:40;;;;;;;12.45;3.38;;;;;;;10.29;100.00;96623.84;5024857;28;20501;-60
2023/04/23 00:08:09;;;;;;;7.35;3.00;;;;;;;10.32;100.00;96619.78;5025487;28;20052;-60
2023/04/23 00:10:36;;;;;;;6.15;3.90;;;;;;;10.31;100.00;96618.97;5026050;28;20542;-61
2023/04/23 00:13:03;;;;;;;6.07;2.90;;;;;;;10.31;100.00;96618.16;5035099;28;20047;-61
2023/04/23 00:15:30;;;;;;;4.03;2.42;;;;;;;10.44;100.00;96616.81;5026741;28;20117;-60
2023/04/23 00:17:56;;;;;;;5.30;2.30;;;;;;;10.78;100.00;96610.88;5024019;28;20049;-61
2023/04/23 00:20:23;;;;;;;3.80;2.20;;;;;;;11.02;100.00;96610.31;5026908;28;20424;-61
2023/04/23 00:22:50;;;;;;;3.97;2.05;;;;;;;11.17;99.15;96617.59;5025472;28;20069;-60
2023/04/23 00:25:16;;;;;;;4.15;2.28;;;;;;;11.21;99.14;96623.28;5023407;28;20038;-61
2023/04/23 00:27:43;;;;;;;4.93;2.47;;;;;;;11.35;97.04;96628.94;5027055;28;20504;-61
2023/04/23 00:30:10;;;;;;;4.85;2.40;;;;;;;11.47;95.79;96634.06;5032386;28;20037;-61
2023/04/23 00:32:36;;;;;;;5.68;2.45;;;;;;;11.49;95.45;96623.72;5023014;28;20049;-59
2023/04/23 00:35:04;;;;;;;5.18;2.35;;;;;;;11.47;94.95;96634.88;5024765;28;20041;-59
2023/04/23 00:37:32;;;;;;;5.28;2.83;;;;;;;11.56;94.51;96637.81;5026315;28;20651;-60
2023/04/23 00:39:58;;;;;;;5.75;2.13;;;;;;;11.58;94.32;96639.16;5032201;28;20115;-60
2023/04/23 00:42:27;;;;;;;4.40;2.53;;;;;;;11.63;94.60;96648.34;5025031;28;20061;-61
2023/04/23 00:44:53;;;;;;;6.25;2.55;;;;;;;11.37;96.20;96653.84;5026446;28;20489;-60
2023/04/23 00:47:20;;;;;;;5.82;2.90;;;;;;;11.15;99.07;96646.84;5023550;28;20041;-60
2023/04/23 00:49:49;;;;;;;4.72;2.08;;;;;;;11.11;99.63;96654.72;5026501;28;20045;-57
2023/04/23 00:52:16;;;;;;;6.13;2.70;;;;;;;11.11;100.00;96660.16;5037047;28;20393;-60
2023/04/23 00:54:42;;;;;;;6.60;3.13;;;;;;;11.01;100.00;96660.97;5031062;28;20091;-61
2023/04/23 00:57:10;;;;;;;6.75;2.67;;;;;;;11.00;100.00;96662.06;5022182;28;20123;-60
2023/04/23 00:59:36;;;;;;;5.53;2.50;;;;;;;11.04;100.00;96659.59;5024256;28;20652;-61
2023/04/23 01:02:03;;;;;;;5.95;3.90;;;;;;;11.03;100.00;96668.81;5025552;28;20037;-60
2023/04/23 01:04:31;;;;;;;6.00;2.80;;;;;;;11.03;100.00;96666.13;5026105;28;20106;-60
2023/04/23 01:06:58;;;;;;;5.22;2.58;;;;;;;11.09;100.00;96658.81;5030708;28;20040;-60
2023/04/23 01:09:26;;;;;;;5.28;2.70;;;;;;;11.01;100.00;96655.56;5028135;28;20568;-60
2023/04/23 01:11:53;;;;;;;4.90;2.80;;;;;;;10.90;100.00;96653.91;5030310;28;20033;-61
2023/04/23 01:14:20;;;;;;;5.13;2.17;;;;;;;10.95;100.00;96651.25;5037859;28;20124;-61
2023/04/23 01:16:48;;;;;;;4.65;2.38;;;;;;;10.99;100.00;96656.91;5025025;28;20521;-61
2023/04/23 01:19:16;;;;;;;5.40;2.50;;;;;;;10.98;100.00;96650.66;5026537;28;20042;-60
2023/04/23 01:21:43;;;;;;;4.75;2.20;;;;;;;10.98;100.00;96653.38;5024762;28;20038;-61
2023/04/23 01:24:10;;;;;;;5.80;2.42;;;;;;;10.90;100.00;96651.22;5033627;28;20659;-60
2023/04/23 01:26:38;;;;;;;4.28;2.22;;;;;;;10.90;100.00;96652.03;5026198;28;20091;-60
2023/04/23 01:29:05;;;;;;;4.85;2.20;;;;;;;11.00;100.00;96653.94;5029776;28;20049;-60
2023/04/23 01:31:32;;;;;;;5.03;2.50;;;;;;;11.00;100.00;96653.09;5026723;28;20040;-59
2023/04/23 01:34:00;;;;;;;5.15;2.30;;;;;;;11.02;100.00;96646.34;5034177;28;20044;-61
2023/04/23 01:36:27;;;;;;;4.63;2.30;;;;;;;10.96;100.00;96650.16;5025392;28;20107;-60
2023/04/23 01:38:54;;;;;;;5.78;2.65;;;;;;;10.90;100.00;96654.75;5031333;28;20041;-61
2023/04/23 01:41:21;;;;;;;7.88;2.90;;;;;;;10.90;100.00;96656.63;5024220;28;20108;-61
2023/04/23 01:43:47;;;;;;;4.97;2.13;;;;;;;10.86;100.00;96669.09;5036199;28;20037;-60
2023/04/23 01:46:15;;;;;;;3.88;2.20;;;;;;;10.83;100.00;96661.53;5030367;28;20634;-61
2023/04/23 01:48:42;;;;;;;6.60;2.58;;;;;;;10.82;100.00;96668.00;5026068;28;20044;-61
2023/04/23 01:51:09;;;;;;;4.90;2.40;;;;;;;10.69;100.00;96670.16;5037623;28;20037;-60
2023/04/23 01:53:35;;;;;;;4.93;2.45;;;;;;;10.56;100.00;96668.81;5020856;28;20064;-60
2023/04/23 01:56:02;;;;;;;6.35;3.25;;;;;;;10.48;100.00;96669.34;5029621;28;20041;-60
2023/04/23 01:58:29;;;;;;;7.05;2.80;;;;;;;10.45;100.00;96667.16;5026522;28;20042;-60
2023/04/23 02:00:56;;;;;;;5.55;2.40;;;;;;;10.56;100.00;96671.53;5034598;28;20040;-61
2023/04/23 02:03:22;;;;;;;5.80;2.60;;;;;;;10.60;100.00;96675.31;5020363;28;20100;-61
2023/04/23 02:05:51;;;;;;;5.30;2.42;;;;;;;10.65;100.00;96679.94;5026437;28;20036;-61
2023/04/23 02:08:18;;;;;;;4.88;2.67;;;;;;;10.63;100.00;96679.38;5025522;28;20455;-59
2023/04/23 02:10:44;;;;;;;4.47;2.40;;;;;;;10.64;100.00;96678.28;5021598;28;20045;-61
2023/04/23 02:13:11;;;;;;;4.57;2.60;;;;;;;10.63;100.00;96680.22;5022235;28;20072;-60
2023/04/23 02:15:37;;;;;;;7.97;3.13;;;;;;;10.61;100.00;96676.16;5031235;28;20048;-61
2023/04/23 02:18:04;;;;;;;4.93;2.08;;;;;;;10.57;100.00;96669.66;5027389;28;20065;-61
2023/04/23 02:20:31;;;;;;;5.20;2.30;;;;;;;10.53;100.00;96678.28;5032118;28;20052;-61
2023/04/23 02:22:58;;;;;;;5.07;2.92;;;;;;;10.27;100.00;96686.34;5024713;28;20513;-60
2023/04/23 02:25:24;;;;;;;4.55;2.55;;;;;;;10.08;100.00;96685.19;5036328;28;20559;-61
2023/04/23 02:27:51;;;;;;;3.72;2.20;;;;;;;10.10;100.00;96688.44;5026795;28;20124;-59
2023/04/23 02:30:17;;;;;;;4.93;2.33;;;;;;;10.11;100.00;96685.50;5026449;28;20045;-60
2023/04/23 02:32:44;;;;;;;4.22;2.60;;;;;;;10.14;100.00;96684.13;5024802;28;20037;-61
2023/04/23 02:35:11;;;;;;;5.00;2.65;;;;;;;10.12;100.00;96680.88;5024502;28;20045;-61
2023/04/23 02:37:39;;;;;;;6.55;2.70;;;;;;;10.10;100.00;96685.75;5014555;28;20068;-60
2023/04/23 02:40:06;;;;;;;5.30;2.60;;;;;;;10.02;100.00;96687.88;5028652;28;20571;-60
2023/04/23 02:42:33;;;;;;;5.50;2.70;;;;;;;9.96;100.00;96678.13;5022485;28;20558;-60
2023/04/23 02:45:00;;;;;;;6.43;3.03;;;;;;;9.98;100.00;96677.84;5027476;28;20042;-61
2023/04/23 02:47:26;;;;;;;6.88;2.70;;;;;;;10.02;100.00;96676.25;5031362;28;20056;-61
2023/04/23 02:49:53;;;;;;;5.95;2.80;;;;;;;10.04;100.00;96678.69;5030226;28;20412;-60
2023/04/23 02:52:20;;;;;;;6.18;3.22;;;;;;;10.06;100.00;96674.63;5028998;28;20037;-60
2023/04/23 02:54:47;;;;;;;5.75;2.60;;;;;;;10.08;100.00;96677.91;5024110;28;20041;-61
2023/04/23 02:57:15;;;;;;;5.05;2.30;;;;;;;10.11;100.00;96676.56;5023442;28;20045;-61
2023/04/23 02:59:42;;;;;;;5.20;2.42;;;;;;;10.09;100.00;96676.00;5029633;28;20632;-60
2023/04/23 03:02:09;;;;;;;6.45;3.83;;;;;;;10.11;100.00;96674.66;5023226;28;20049;-61
2023/04/23 03:04:35;;;;;;;4.63;2.30;;;;;;;10.13;100.00;96671.66;5022598;28;20088;-61
2023/04/23 03:07:02;;;;;;;4.43;2.47;;;;;;;10.12;100.00;96670.06;5026689;28;20045;-61
2023/04/23 03:09:31;;;;;;;6.20;2.40;;;;;;;10.04;100.00;96665.16;5025063;28;20229;-61
2023/04/23 03:11:57;;;;;;;5.70;2.00;;;;;;;9.78;100.00;96667.78;5021431;28;20590;-61
2023/04/23 03:14:24;;;;;;;4.45;2.20;;;;;;;9.80;100.00;96669.13;5020430;28;20603;-60
2023/04/23 03:16:51;;;;;;;4.72;2.08;;;;;;;9.71;100.00;96674.25;5023427;28;20061;-61
2023/04/23 03:19:18;;;;;;;5.18;2.50;;;;;;;9.78;100.00;96675.88;5027221;28;20046;-61
2023/04/23 03:21:45;;;;;;;3.70;2.00;;;;;;;9.82;100.00;96676.97;5028559;28;20552;-61
2023/04/23 03:24:12;;;;;;;3.72;1.95;;;;;;;9.83;100.00;96674.03;5034651;28;20563;-61
2023/04/23 03:26:39;;;;;;;3.28;1.85;;;;;;;9.89;100.00;96680.25;5033882;28;20048;-62
2023/04/23 03:29:06;;;;;;;3.60;1.65;;;;;;;9.69;100.00;96684.50;5029935;28;20045;-61
2023/04/23 03:31:32;;;;;;;4.35;2.30;;;;;;;9.61;100.00;96682.28;5033841;28;20108;-61
2023/04/23 03:33:59;;;;;;;3.42;1.88;;;;;;;9.49;100.00;96686.03;5031859;28;20059;-61
2023/04/23 03:36:31;;;;;;;5.10;2.30;;;;;;;9.32;100.00;96669.97;5027830;28;21718;-60
2023/04/23 03:38:58;;;;;;;4.57;2.42;;;;;;;9.39;100.00;96682.47;5026641;28;20042;-61
2023/04/23 03:41:30;;;;;;;;;;;;;;;9.40;100.00;96684.88;5037110;28;20424;-60
2023/04/23 03:43:57;;;;;;;5.18;1.80;;;;;;;9.28;100.00;96681.59;5032020;28;19925;-61
2023/04/23 03:46:43;;;;;;;4.57;2.30;;;;;;;9.19;100.00;96686.66;5029535;28;20098;-60
2023/04/23 03:49:10;;;;;;;3.95;1.70;;;;;;;9.16;100.00;96692.56;5031087;28;20095;-60
2023/04/23 03:51:37;;;;;;;3.88;2.15;;;;;;;9.10;100.00;96695.22;5034554;28;20206;-61
2023/04/23 03:54:04;;;;;;;3.80;2.00;;;;;;;8.90;100.00;96686.97;5023439;28;20393;-61
2023/04/23 03:56:37;;;;;;;3.40;2.10;;;;;;;8.85;100.00;96693.16;5025046;28;20065;-59
2023/04/23 03:59:29;;;;;;;4.10;2.17;;;;;;;8.84;100.00;96689.63;5030336;28;20562;-60
2023/04/23 04:01:58;;;;;;;6.20;3.30;;;;;;;8.74;100.00;96692.25;5034575;28;20045;-59
2023/04/23 04:04:25;;;;;;;3.63;1.95;;;;;;;8.68;100.00;96694.09;5036500;28;20068;-59
2023/04/23 04:06:53;;;;;;;5.13;2.20;;;;;;;8.61;100.00;96693.50;5022938;28;20142;-60
2023/04/23 04:09:25;;;;;;;4.38;2.50;;;;;;;8.59;100.00;96692.94;5035416;28;20107;-58
2023/04/23 04:11:55;;;;;;;3.33;1.77;;;;;;;8.63;100.00;96699.47;5039088;28;20060;-60
2023/04/23 04:14:22;;;;;;;4.57;2.30;;;;;;;8.62;100.00;96681.63;5032798;28;20057;-61
2023/04/23 04:16:48;;;;;;;3.28;1.98;;;;;;;8.59;100.00;96685.66;5040449;28;20048;-59
2023/04/23 04:19:15;;;;;;;4.22;1.80;;;;;;;8.65;100.00;96693.78;5036094;28;20065;-60
2023/04/23 04:21:42;;;;;;;3.20;1.70;;;;;;;8.73;100.00;96692.53;5041836;28;20044;-60
2023/04/23 04:24:10;;;;;;;4.88;2.13;;;;;;;8.45;100.00;96698.69;5035694;28;20044;-59
2023/04/23 04:26:37;;;;;;;3.00;1.67;;;;;;;8.35;100.00;96695.09;5030980;28;20109;-61
2023/04/23 04:29:03;;;;;;;2.78;1.50;;;;;;;8.39;100.00;96707.81;5035883;28;20087;-59
2023/04/23 04:31:31;;;;;;;4.25;1.80;;;;;;;8.30;100.00;96699.34;5023883;28;20041;-61
2023/04/23 04:33:57;;;;;;;3.63;1.85;;;;;;;8.33;100.00;96704.25;5027484;28;20766;-61
2023/04/23 04:36:25;;;;;;;3.88;1.52;;;;;;;8.32;100.00;96702.63;5038920;28;20055;-61
2023/04/23 04:38:54;;;;;;;3.67;1.60;;;;;;;8.33;100.00;96700.72;5042059;28;20037;-61
2023/04/23 04:41:24;;;;;;;7.50;1.65;;;;;;;8.44;100.00;96707.88;5026523;28;20045;-61
2023/04/23 04:43:51;;;;;;;3.38;1.70;;;;;;;8.29;100.00;96703.13;5038241;28;20045;-60
2023/04/23 04:46:20;;;;;;;3.13;1.70;;;;;;;8.25;100.00;96710.09;5034152;28;20032;-60
2023/04/23 04:48:47;;;;;;;3.17;1.65;;;;;;;8.32;100.00;96702.63;5034257;28;20051;-60
2023/04/23 04:51:14;;;;;;;2.35;1.40;;;;;;;8.40;100.00;96703.25;5027336;28;20056;-61
2023/04/23 04:53:41;;;;;;;4.03;1.48;;;;;;;8.39;100.00;96709.69;5035785;28;20049;-61
2023/04/23 04:56:08;;;;;;;2.83;1.67;;;;;;;8.34;100.00;96699.69;5031933;28;20041;-61
2023/04/23 04:58:35;;;;;;;2.55;1.40;;;;;;;8.49;100.00;96693.63;5026046;28;20037;-61
2023/04/23 05:01:02;;;;;;;3.47;1.60;;;;;;;8.62;100.00;96697.81;5039026;28;20064;-61
2023/04/23 05:03:28;;;;;;;3.25;1.52;;;;;;;8.57;100.00;96695.91;5031494;28;20056;-61
2023/04/23 05:05:55;;;;;;;3.75;1.65;;;;;;;8.63;100.00;96698.63;5026235;28;20049;-60
2023/04/23 05:08:22;;;;;;;3.15;1.30;;;;;;;8.54;100.00;96695.56;5030939;28;20045;-59
2023/04/23 05:10:53;;;;;;;4.68;1.50;;;;;;;8.52;100.00;96690.41;5030674;28;20879;-60
2023/04/23 05:13:20;;;;;;;3.20;1.55;;;;;;;8.50;100.00;96691.72;5032003;28;20044;-60
2023/04/23 05:15:46;;;;;;;3.72;1.30;;;;;;;8.58;100.00;96694.00;5030885;28;20740;-61
2023/04/23 05:18:13;;;;;;;2.58;1.25;;;;;;;8.44;100.00;96697.06;5032147;28;20049;-61
2023/04/23 05:20:40;;;;;;;2.78;1.50;;;;;;;8.45;100.00;96696.00;5038255;28;20110;-60
2023/04/23 05:23:06;;;;;;;2.00;1.20;;;;;;;8.55;100.00;96695.31;5032136;28;20102;-58
2023/04/23 05:25:34;;;;;;;3.17;1.60;;;;;;;8.71;100.00;96700.88;5031364;28;20052;-61
2023/04/23 05:28:01;;;;;;;2.85;1.67;;;;;;;8.81;100.00;96697.44;5024382;28;20725;-60
2023/04/23 05:30:28;;;;;;;5.30;1.80;;;;;;;8.91;100.00;96694.00;5024218;28;20041;-60
2023/04/23 05:32:54;;;;;;;3.65;1.80;;;;;;;9.03;100.00;96691.94;5032000;28;20742;-60
2023/04/23 05:35:21;;;;;;;3.53;1.38;;;;;;;9.06;100.00;96701.41;5027854;28;20041;-59
2023/04/23 05:37:48;;;;;;;2.85;1.55;;;;;;;9.09;100.00;96693.63;5036138;28;20045;-60
2023/04/23 05:40:14;;;;;;;4.93;1.70;;;;;;;9.17;100.00;96695.00;5032563;28;20068;-60
2023/04/23 05:42:41;;;;;;;3.22;1.50;;;;;;;9.28;100.00;96700.50;5042098;28;20725;-60
2023/04/23 05:45:08;;;;;;;2.65;1.50;;;;;;;9.39;100.00;96706.78;5031658;28;20550;-61
2023/04/23 05:47:35;;;;;;;2.85;1.50;;;;;;;9.42;100.00;96707.06;5033869;28;20052;-59
2023/04/23 05:50:02;;;;;;;3.45;1.75;;;;;;;9.53;100.00;96702.53;5037975;28;20070;-61
2023/04/23 05:52:34;;;;;;;3.15;1.65;;;;;;;9.60;100.00;96708.53;5029625;28;20041;-61
2023/04/23 05:55:01;;;;;;;4.65;2.33;;;;;;;9.72;100.00;96702.91;5029335;28;20037;-61
2023/04/23 05:57:27;;;;;;;3.83;1.80;;;;;;;9.77;100.00;96702.13;5032057;28;20412;-60
2023/04/23 05:59:54;;;;;;;3.40;2.00;;;;;;;9.83;100.00;96703.75;5028553;28;20041;-60
2023/04/23 06:02:20;;;;;;;3.83;2.10;;;;;;;9.93;100.00;96702.16;5026614;28;20695;-61
2023/04/23 06:04:50;;;;;;;3.47;1.90;;;;;;;10.07;100.00;96705.22;5036358;28;20053;-60
2023/04/23 06:07:17;;;;;;;2.88;1.77;;;;;;;10.25;100.00;96699.31;5031055;28;20052;-61
2023/04/23 06:09:43;;;;;;;2.97;1.50;;;;;;;10.36;100.00;96702.06;5033426;28;20122;-62
2023/04/23 06:12:10;;;;;;;4.18;1.75;;;;;;;10.43;100.00;96693.69;5031746;28;20037;-61
2023/04/23 06:14:36;;;;;;;2.33;1.30;;;;;;;10.44;100.00;96695.28;5032300;28;20667;-61
2023/04/23 06:17:03;;;;;;;2.25;1.15;;;;;;;10.54;100.00;96696.16;5034633;28;20048;-61
2023/04/23 06:19:29;;;;;;;3.25;1.00;;;;;;;10.65;100.00;96691.56;5036010;28;20338;-61
2023/04/23 06:21:56;;;;;;;1.50;0.80;;;;;;;10.77;100.00;96691.28;5035078;28;20531;-61
2023/04/23 06:24:22;;;;;;;1.00;0.50;;;;;;;10.82;100.00;96695.09;5021089;28;20156;-62
2023/04/23 06:26:49;;;;;;;1.15;0.65;;;;;;;10.84;100.00;96685.59;5031227;28;20502;-61
2023/04/23 06:29:18;;;;;;;1.50;0.68;;;;;;;10.83;100.00;96691.31;5022688;28;20071;-60
2023/04/23 06:31:55;;;;;;;1.50;0.70;;;;;;;10.98;100.00;96691.31;5036572;28;20107;-61
2023/04/23 06:34:22;;;;;;;1.38;0.85;;;;;;;11.03;100.00;96685.09;5028303;28;20041;-61
2023/04/23 06:36:50;;;;;;;1.65;0.70;;;;;;;11.10;100.00;96687.50;5037136;28;20159;-62
2023/04/23 06:39:17;;;;;;;1.65;1.10;;;;;;;11.19;100.00;96677.75;5023693;28;20045;-61
2023/04/23 06:41:43;;;;;;;1.33;0.70;;;;;;;11.17;100.00;96685.34;5022458;28;20049;-61
2023/04/23 06:44:24;;;;;;;2.25;0.70;;;;;;;11.26;100.00;96683.72;5028796;28;20037;-61
2023/04/23 06:46:51;;;;;;;1.10;0.60;;;;;;;11.42;97.87;96680.94;5027194;28;20045;-61
2023/04/23 06:49:17;;;;;;;1.50;0.60;;;;;;;11.49;98.35;96683.38;5031980;28;20045;-61
2023/04/23 06:51:44;;;;;;;0.73;0.47;;;;;;;11.39;96.41;96676.09;5032086;28;20037;-62
2023/04/23 06:54:11;;;;;;;1.30;0.70;;;;;;;11.48;97.16;96677.16;5029861;28;20041;-61
2023/04/23 06:56:37;;;;;;;0.95;0.60;;;;;;;11.52;94.98;96667.38;5017257;28;20045;-61
2023/04/23 06:59:04;;;;;;;1.45;0.80;;;;;;;11.63;95.30;96679.00;5027576;28;20087;-61
2023/04/23 07:01:32;;;;;;;1.88;0.98;;;;;;;11.74;94.43;96673.53;5034058;28;20140;-61
2023/04/23 07:03:58;;;;;;;1.60;0.85;;;;;;;11.82;95.19;96670.25;5031527;28;20543;-60
2023/04/23 07:06:26;;;;;;;2.55;1.10;;;;;;;12.07;93.44;96671.28;5025521;28;20041;-62
2023/04/23 07:08:53;;;;;;;1.58;0.80;;;;;;;12.21;92.25;96661.41;5031226;28;20037;-62
2023/04/23 07:11:19;;;;;;;1.58;0.80;;;;;;;12.48;91.74;96670.22;5024363;28;20057;-62
2023/04/23 07:13:46;;;;;;;1.90;0.80;;;;;;;12.43;90.91;96657.50;5031975;28;20052;-62
2023/04/23 07:16:12;;;;;;;3.38;1.50;;;;;;;12.46;88.56;96661.56;5032475;28;20041;-62
2023/04/23 07:18:39;;;;;;;1.60;1.08;;;;;;;12.67;87.71;96656.78;5036238;28;20048;-61
2023/04/23 07:21:06;;;;;;;1.58;1.00;;;;;;;12.77;87.60;96661.34;5027369;28;20042;-62
2023/04/23 07:23:32;;;;;;;4.18;1.30;;;;;;;12.55;87.50;96662.56;5030296;28;20084;-61
2023/04/23 07:25:59;;;;;;;2.47;1.20;;;;;;;12.28;88.08;96661.13;5031857;28;20098;-61
2023/04/23 07:28:25;;;;;;;1.77;1.00;;;;;;;12.42;88.03;96665.94;5032222;28;20047;-62
2023/04/23 07:30:52;;;;;;;1.73;1.02;;;;;;;12.53;87.15;96667.47;5034109;28;20049;-62
2023/04/23 07:33:18;;;;;;;3.55;1.10;;;;;;;12.39;87.78;96663.78;5027334;28;20033;-62
2023/04/23 07:35:45;;;;;;;3.05;1.02;;;;;;;12.58;87.69;96663.91;5025288;28;20076;-61
2023/04/23 07:38:11;;;;;;;2.33;1.02;;;;;;;12.58;89.12;96653.06;5030899;28;20124;-62
2023/04/23 07:40:38;;;;;;;3.05;1.75;;;;;;;12.61;87.27;96653.28;5034241;28;20069;-61
2023/04/23 07:43:05;;;;;;;2.47;1.08;;;;;;;12.87;86.30;96652.28;5032388;28;20033;-62
2023/04/23 07:45:31;;;;;;;2.53;1.40;;;;;;;12.98;84.01;96647.59;5031473;28;20091;-61
2023/04/23 07:47:58;;;;;;;2.92;0.93;;;;;;;13.26;81.27;96654.09;5034019;28;20045;-62
2023/04/23 07:50:24;;;;;;;3.05;1.42;;;;;;;13.01;84.28;96653.25;5028978;28;20038;-62
2023/04/23 07:52:51;;;;;;;2.47;1.02;;;;;;;13.04;84.39;96649.13;5030565;28;20131;-62
2023/04/23 07:55:19;;;;;;;2.00;0.98;;;;;;;12.80;85.95;96641.75;5027419;28;20052;-61
2023/04/23 07:57:45;;;;;;;5.00;1.30;;;;;;;12.88;84.68;96643.03;5033467;28;20040;-62
2023/04/23 08:00:13;;;;;;;2.42;1.27;;;;;;;13.17;82.76;96644.13;5033734;28;20049;-62
2023/04/23 08:02:39;;;;;;;2.72;1.13;;;;;;;13.35;79.16;96637.97;5029825;28;20098;-62
2023/04/23 08:05:07;;;;;;;2.17;1.30;;;;;;;13.43;79.87;96633.81;5034191;28;20045;-62
2023/04/23 08:07:33;;;;;;;3.20;1.00;;;;;;;13.26;80.01;96626.09;5032542;28;20484;-62
2023/04/23 08:10:04;;;;;;;2.92;1.25;;;;;;;13.17;80.03;96625.94;5039642;28;20504;-62
2023/04/23 08:12:34;;;;;;;3.00;1.00;;;;;;;13.14;81.98;96630.03;5032291;28;20059;-62
2023/04/23 08:15:01;;;;;;;1.65;1.00;;;;;;;13.09;80.85;96632.78;5039199;28;20048;-62
2023/04/23 08:17:34;;;;;;;2.92;1.20;;;;;;;12.81;81.22;96624.34;5031805;28;20049;-62
2023/04/23 08:20:03;;;;;;;2.92;1.20;;;;;;;12.76;81.79;96618.97;5026768;28;20508;-62
2023/04/23 08:22:29;;;;;;;2.88;1.20;;;;;;;12.78;82.56;96616.75;5030460;28;20122;-62
2023/04/23 08:24:56;;;;;;;1.80;1.05;;;;;;;12.77;81.75;96617.03;5027038;28;20123;-61
2023/04/23 08:27:22;;;;;;;2.03;1.25;;;;;;;12.82;80.87;96611.56;5033965;28;20060;-62
2023/04/23 08:29:49;;;;;;;2.78;1.10;;;;;;;12.99;81.65;96619.31;5039600;28;20137;-62
2023/04/23 08:32:15;;;;;;;2.65;1.17;;;;;;;13.12;79.43;96613.19;5026520;28;20075;-62
2023/04/23 08:34:42;;;;;;;2.13;1.27;;;;;;;13.26;79.47;96613.31;5037069;28;20254;-62
2023/04/23 08:37:08;;;;;;;1.98;1.20;;;;;;;13.44;76.17;96610.13;5027799;28;20069;-62
2023/04/23 08:39:48;;;;;;;2.42;1.10;;;;;;;13.59;74.92;96614.63;5035322;28;20050;-62
2023/04/23 08:42:33;;;;;;;3.22;1.20;;;;;;;13.67;75.42;96611.25;5036524;28;20049;-62
2023/04/23 08:45:02;;;;;;;2.83;1.13;;;;;;;13.84;76.01;96602.63;5032499;28;20113;-62
2023/04/23 08:47:31;;;;;;;2.80;1.27;;;;;;;13.92;75.49;96612.03;5036773;28;20137;-62
2023/04/23 08:49:58;;;;;;;2.33;1.23;;;;;;;14.02;73.80;96600.22;5020977;28;20046;-62
2023/04/23 08:52:28;;;;;;;6.13;1.30;;;;;;;14.11;73.91;96606.59;5026454;28;20042;-62
2023/04/23 08:54:59;;;;;;;2.75;1.30;;;;;;;13.98;72.37;96602.72;5027290;28;20057;-62
2023/04/23 08:57:26;;;;;;;2.25;1.30;;;;;;;13.80;72.14;96604.31;5029610;28;20045;-62
2023/04/23 08:59:54;;;;;;;1.88;1.20;;;;;;;13.64;73.57;96599.06;5040434;28;20044;-62
2023/04/23 09:02:22;;;;;;;2.85;1.17;;;;;;;13.83;73.82;96605.63;5031274;28;20051;-62
2023/04/23 09:04:48;;;;;;;3.00;1.33;;;;;;;13.94;72.97;96600.88;5040994;28;20041;-62
2023/04/23 09:07:18;;;;;;;2.35;1.23;;;;;;;13.75;72.67;96602.44;5039422;28;20041;-62
2023/04/23 09:09:44;;;;;;;2.53;1.20;;;;;;;13.97;71.82;96597.56;5038802;28;20049;-62
2023/04/23 09:12:11;;;;;;;1.60;1.10;;;;;;;14.25;71.34;96592.25;5034173;28;20057;-62
2023/04/23 09:14:37;;;;;;;1.95;1.08;;;;;;;14.31;72.72;96589.16;5031286;28;20073;-62
2023/04/23 09:17:05;;;;;;;3.50;1.25;;;;;;;14.36;73.02;96577.38;5037247;28;20059;-62
2023/04/23 09:19:32;;;;;;;2.33;1.20;;;;;;;14.42;71.63;96586.28;5034416;28;20492;-62
2023/04/23 09:22:01;;;;;;;2.83;1.40;;;;;;;14.21;71.47;96585.78;5041798;28;20045;-62
2023/04/23 09:24:29;;;;;;;2.40;1.20;;;;;;;14.28;71.88;96589.78;5031526;28;20034;-62
2023/04/23 09:26:57;;;;;;;1.77;1.10;;;;;;;14.57;70.10;96579.78;5037479;28;20139;-61
2023/04/23 09:29:24;;;;;;;2.90;1.10;;;;;;;14.75;69.48;96571.88;5033406;28;20041;-61
2023/04/23 09:31:53;;;;;;;2.53;1.00;;;;;;;14.88;67.92;96565.66;5039693;28;20124;-61
2023/04/23 09:34:21;;;;;;;3.17;1.30;;;;;;;15.04;67.46;96555.28;5037077;28;20120;-61
2023/04/23 09:36:51;;;;;;;2.85;1.30;;;;;;;14.85;68.39;96551.84;5033772;28;20451;-62
2023/04/23 09:39:22;;;;;;;2.13;1.17;;;;;;;14.95;67.99;96549.75;5028015;28;20106;-62
2023/04/23 09:41:52;;;;;;;2.72;1.20;;;;;;;14.89;69.07;96550.91;5024616;28;20046;-62
2023/04/23 09:44:25;;;;;;;2.90;1.40;;;;;;;15.19;67.95;96548.72;5025067;28;20093;-62
2023/04/23 09:46:51;;;;;;;3.35;1.42;;;;;;;15.15;66.83;96544.19;5033202;28;20045;-62
2023/04/23 09:49:18;;;;;;;4.10;1.38;;;;;;;15.16;65.97;96541.19;5027896;28;20037;-62
2023/04/23 09:51:47;;;;;;;4.13;1.30;;;;;;;14.88;67.61;96535.69;5033304;28;20041;-61
2023/04/23 09:54:21;;;;;;;2.20;1.20;;;;;;;14.88;66.57;96541.13;5033671;28;20150;-61
2023/04/23 09:56:49;;;;;;;2.47;1.10;;;;;;;15.04;65.55;96546.31;5026198;28;20118;-62
2023/04/23 09:59:23;;;;;;;3.15;1.23;;;;;;;15.13;65.59;96538.22;5018368;28;20041;-61
2023/04/23 10:02:10;;;;;;;3.10;1.33;;;;;;;15.15;65.18;96538.75;5026310;28;20041;-62
2023/04/23 10:04:37;;;;;;;2.45;1.25;;;;;;;15.44;63.57;96524.78;5038399;28;20041;-62
2023/04/23 10:07:07;;;;;;;1.98;1.00;;;;;;;15.72;62.89;96515.75;5030620;28;20045;-60
2023/04/23 10:09:46;;;;;;;2.85;1.40;;;;;;;15.81;62.53;96515.84;5023315;28;20045;-61
2023/04/23 10:12:13;;;;;;;2.15;1.20;;;;;;;15.81;63.29;96519.38;5029818;28;20915;-61
2023/04/23 10:14:44;;;;;;;2.78;1.35;;;;;;;15.87;63.50;96511.88;5038406;28;20459;-61
2023/04/23 10:17:11;;;;;;;2.40;1.30;;;;;;;16.08;61.68;96504.06;5028690;28;20439;-61
2023/04/23 10:19:41;;;;;;;1.80;1.02;;;;;;;15.94;62.72;96508.72;5037221;28;20045;-61
2023/04/23 10:22:10;;;;;;;2.50;1.10;;;;;;;15.85;62.48;96512.19;5027802;28;20102;-61
2023/04/23 10:24:46;;;;;;;2.55;1.15;;;;;;;15.95;61.89;96505.72;5019234;28;20029;-61
2023/04/23 10:27:16;;;;;;;3.15;1.10;;;;;;;16.07;61.10;96499.69;5026169;28;20534;-61
2023/04/23 10:30:05;;;;;;;2.13;0.80;;;;;;;16.73;58.14;96492.09;5026697;28;20547;-61
2023/04/23 10:32:36;;;;;;;2.53;0.95;;;;;;;16.82;59.26;96486.66;5027494;28;20873;-61
2023/04/23 10:35:03;;;;;;;2.57;1.10;;;;;;;17.01;57.62;96497.34;5034581;28;20536;-61
2023/04/23 10:37:31;;;;;;;1.48;0.90;;;;;;;16.77;57.37;96487.63;5027894;28;20048;-61
2023/04/23 10:40:06;;;;;;;1.83;0.80;;;;;;;16.57;58.77;96488.94;5027662;28;20048;-60
2023/04/23 10:42:34;;;;;;;2.30;1.02;;;;;;;16.82;57.49;96487.47;5031779;28;20084;-61
2023/04/23 10:45:00;;;;;;;2.53;1.00;;;;;;;17.03;58.14;96475.97;5035151;28;20712;-60
2023/04/23 10:47:43;;;;;;;1.77;1.05;;;;;;;17.05;55.47;96471.00;5036948;28;20045;-60
2023/04/23 10:50:29;;;;;;;2.47;0.95;;;;;;;17.46;54.09;96463.56;5024184;28;20520;-60
2023/04/23 10:52:56;;;;;;;1.92;0.82;;;;;;;17.70;54.59;96470.50;5027366;28;20828;-60
2023/04/23 10:55:31;;;;;;;1.35;0.60;;;;;;;17.57;54.55;96472.25;5029649;28;20052;-60
2023/04/23 10:58:02;;;;;;;1.27;0.77;;;;;;;17.68;53.04;96465.34;5029881;28;20041;-60
2023/04/23 11:00:41;;;;;;;2.20;0.93;;;;;;;17.34;49.61;96460.63;5027224;28;20567;-60
2023/04/23 11:03:38;;;;;;;1.95;0.80;;;;;;;17.11;50.79;96461.56;5031499;28;20591;-61
2023/04/23 11:06:14;;;;;;;;;;;;;;;17.13;51.60;96461.22;5028132;28;20640;-60
2023/04/23 11:08:55;;;;;;;4.68;0.68;;;;;;;17.35;53.75;96454.84;5030554;28;20304;-60
2023/04/23 11:11:41;;;;;;;1.30;0.60;;;;;;;17.44;50.74;96451.31;5029920;28;20060;-60
2023/04/23 11:14:13;;;;;;;3.55;0.90;;;;;;;17.05;50.86;96454.59;5029257;28;20045;-59
2023/04/23 11:16:40;;;;;;;2.17;0.80;;;;;;;17.11;50.98;96450.63;5029487;28;20605;-60
2023/04/23 11:19:14;;;;;;;0.47;0.40;;;;;;;17.10;50.25;96448.19;5028200;28;20055;-60
2023/04/23 11:22:04;;;;;;;1.90;0.75;;;;;;;17.44;51.63;96443.09;5025687;28;20050;-61
2023/04/23 11:24:40;;;;;;;2.13;0.80;;;;;;;17.74;50.07;96433.16;5027246;28;20048;-61
2023/04/23 11:27:17;;;;;;;1.50;0.68;;;;;;;18.18;49.25;96426.84;5019554;28;20045;-60
2023/04/23 11:29:45;;;;;;;1.45;0.70;;;;;;;17.76;49.44;96421.88;5030217;28;20124;-60
2023/04/23 11:32:15;;;;;;;2.83;1.15;;;;;;;17.96;49.72;96420.41;5032806;28;20060;-60
2023/04/23 11:34:46;;;;;;;1.00;0.60;;;;;;;18.08;50.11;96422.53;5030908;28;20045;-61
2023/04/23 11:37:14;;;;;;;1.90;0.70;;;;;;;17.35;49.02;96423.94;5026334;28;20049;-57